EJU507 EKCH-LOWI
Flight info
| Callsign | EJU507 |
|---|---|
| Flight time | 2h 4m |
| Altitude | 37000 |
| Route | SALLO M44 KOGIM DCT UNRIG DCT MAREM DCT APRAQ DCT BUDEX/N0451F380 DCT PINQI DCT BUBSE DCT MORED DCT ERANI DCT NANIT NANIT2A |
| Aircraft | A319/M-SDE3FGHIRWY/LB1 |
Departure
| Time | 2026-04-22 18:21 |
|---|---|
| Airport | Copenhagen Kastrup Airport (EKCH) |
Arrival
| Time | 2026-04-22 20:25 |
|---|---|
| Airport | Innsbruck Airport (LOWI) |
| Time | Latitude | Longitude | Altitude | Speed | Heading |
|---|---|---|---|---|---|
| 2026-04-22 17:49 | 55.62582 | 12.64460 | 24 ft | 0 kts | 33° |
| 2026-04-22 18:04 | 55.62575 | 12.64452 | 24 ft | 3 kts | 36° |
| 2026-04-22 18:05 | 55.62560 | 12.64430 | 28 ft | 3 kts | 51° |
| 2026-04-22 18:05 | 55.62549 | 12.64401 | 27 ft | 3 kts | 71° |
| 2026-04-22 18:05 | 55.62546 | 12.64368 | 27 ft | 3 kts | 97° |
| 2026-04-22 18:05 | 55.62550 | 12.64338 | 26 ft | 2 kts | 121° |
| 2026-04-22 18:06 | 55.62552 | 12.64332 | 26 ft | 0 kts | 123° |
| 2026-04-22 18:11 | 55.62550 | 12.64338 | 25 ft | 2 kts | 123° |
| 2026-04-22 18:11 | 55.62539 | 12.64368 | 25 ft | 5 kts | 123° |
| 2026-04-22 18:12 | 55.62504 | 12.64463 | 24 ft | 12 kts | 123° |
| 2026-04-22 18:12 | 55.62457 | 12.64588 | 24 ft | 12 kts | 123° |
| 2026-04-22 18:12 | 55.62425 | 12.64675 | 24 ft | 13 kts | 123° |
| 2026-04-22 18:12 | 55.62374 | 12.64814 | 24 ft | 10 kts | 123° |
| 2026-04-22 18:13 | 55.62335 | 12.64910 | 25 ft | 8 kts | 141° |
| 2026-04-22 18:13 | 55.62291 | 12.64869 | 24 ft | 8 kts | 215° |
| 2026-04-22 18:13 | 55.62246 | 12.64813 | 25 ft | 9 kts | 214° |
| 2026-04-22 18:13 | 55.62188 | 12.64743 | 25 ft | 11 kts | 214° |
| 2026-04-22 18:14 | 55.62115 | 12.64659 | 24 ft | 14 kts | 211° |
| 2026-04-22 18:14 | 55.62027 | 12.64556 | 24 ft | 15 kts | 213° |
| 2026-04-22 18:14 | 55.61925 | 12.64502 | 24 ft | 16 kts | 180° |
| 2026-04-22 18:14 | 55.61819 | 12.64535 | 26 ft | 16 kts | 168° |
| 2026-04-22 18:15 | 55.61713 | 12.64570 | 24 ft | 15 kts | 170° |
| 2026-04-22 18:15 | 55.61625 | 12.64506 | 25 ft | 14 kts | 213° |
| 2026-04-22 18:15 | 55.61541 | 12.64410 | 25 ft | 15 kts | 213° |
| 2026-04-22 18:15 | 55.61455 | 12.64309 | 24 ft | 15 kts | 213° |
| 2026-04-22 18:16 | 55.61364 | 12.64206 | 26 ft | 16 kts | 213° |
| 2026-04-22 18:16 | 55.61272 | 12.64099 | 26 ft | 16 kts | 213° |
| 2026-04-22 18:16 | 55.61178 | 12.63992 | 24 ft | 16 kts | 213° |
| 2026-04-22 18:16 | 55.61084 | 12.63884 | 25 ft | 16 kts | 213° |
| 2026-04-22 18:17 | 55.60987 | 12.63772 | 26 ft | 17 kts | 213° |
| 2026-04-22 18:17 | 55.60889 | 12.63660 | 24 ft | 17 kts | 213° |
| 2026-04-22 18:17 | 55.60795 | 12.63552 | 25 ft | 15 kts | 213° |
| 2026-04-22 18:17 | 55.60707 | 12.63452 | 25 ft | 15 kts | 213° |
| 2026-04-22 18:18 | 55.60633 | 12.63356 | 24 ft | 13 kts | 219° |
| 2026-04-22 18:18 | 55.60561 | 12.63244 | 24 ft | 14 kts | 221° |
| 2026-04-22 18:18 | 55.60502 | 12.63152 | 24 ft | 10 kts | 221° |
| 2026-04-22 18:18 | 55.60443 | 12.63111 | 24 ft | 7 kts | 173° |
| 2026-04-22 18:19 | 55.60401 | 12.63164 | 24 ft | 8 kts | 128° |
| 2026-04-22 18:19 | 55.60367 | 12.63240 | 25 ft | 8 kts | 129° |
| 2026-04-22 18:19 | 55.60337 | 12.63304 | 28 ft | 6 kts | 129° |
| 2026-04-22 18:19 | 55.60348 | 12.63360 | 26 ft | 7 kts | 41° |
| 2026-04-22 18:20 | 55.60387 | 12.63420 | 27 ft | 9 kts | 41° |
| 2026-04-22 18:20 | 55.60439 | 12.63500 | 24 ft | 12 kts | 41° |
| 2026-04-22 18:20 | 55.60635 | 12.63803 | 25 ft | 76 kts | 41° |
| 2026-04-22 18:20 | 55.61213 | 12.64698 | 24 ft | 142 kts | 41° |
| 2026-04-22 18:21 | 55.62070 | 12.66022 | 285 ft | 170 kts | 35° |
| 2026-04-22 18:21 | 55.62965 | 12.67420 | 975 ft | 173 kts | 35° |
| 2026-04-22 18:21 | 55.63895 | 12.68849 | 1481 ft | 188 kts | 34° |
| 2026-04-22 18:21 | 55.64972 | 12.70439 | 1784 ft | 217 kts | 33° |
| 2026-04-22 18:22 | 55.66229 | 12.72255 | 2173 ft | 248 kts | 34° |
| 2026-04-22 18:22 | 55.67586 | 12.74273 | 3062 ft | 256 kts | 35° |
| 2026-04-22 18:22 | 55.68934 | 12.76382 | 3812 ft | 260 kts | 39° |
| 2026-04-22 18:22 | 55.69960 | 12.79107 | 4710 ft | 276 kts | 65° |
| 2026-04-22 18:23 | 55.70126 | 12.82544 | 5724 ft | 290 kts | 95° |
| 2026-04-22 18:23 | 55.69360 | 12.85895 | 6700 ft | 301 kts | 122° |
| 2026-04-22 18:23 | 55.67780 | 12.88360 | 7587 ft | 309 kts | 153° |
| 2026-04-22 18:24 | 55.63661 | 12.90704 | 9481 ft | 314 kts | 164° |
| 2026-04-22 18:24 | 55.61578 | 12.91907 | 10367 ft | 316 kts | 159° |
| 2026-04-22 18:24 | 55.57247 | 12.94978 | 11065 ft | 361 kts | 156° |
| 2026-04-22 18:25 | 55.54881 | 12.96711 | 11572 ft | 373 kts | 156° |
| 2026-04-22 18:25 | 55.52459 | 12.98440 | 12309 ft | 377 kts | 157° |
| 2026-04-22 18:25 | 55.50004 | 13.00139 | 13102 ft | 380 kts | 158° |
| 2026-04-22 18:26 | 55.45021 | 13.03478 | 14599 ft | 386 kts | 158° |
| 2026-04-22 18:26 | 55.42498 | 13.05147 | 15301 ft | 389 kts | 158° |
| 2026-04-22 18:26 | 55.39958 | 13.06824 | 15996 ft | 391 kts | 158° |
| 2026-04-22 18:26 | 55.37400 | 13.08515 | 16696 ft | 394 kts | 158° |
| 2026-04-22 18:27 | 55.34831 | 13.10220 | 17396 ft | 396 kts | 157° |
| 2026-04-22 18:27 | 55.32245 | 13.11941 | 18088 ft | 399 kts | 157° |
| 2026-04-22 18:27 | 55.29639 | 13.13675 | 18729 ft | 402 kts | 157° |
| 2026-04-22 18:27 | 55.27017 | 13.15418 | 19313 ft | 404 kts | 157° |
| 2026-04-22 18:28 | 55.24378 | 13.17165 | 19906 ft | 407 kts | 156° |
| 2026-04-22 18:28 | 55.21718 | 13.18919 | 20505 ft | 409 kts | 156° |
| 2026-04-22 18:28 | 55.19049 | 13.20679 | 21084 ft | 412 kts | 156° |
| 2026-04-22 18:28 | 55.16357 | 13.22450 | 21646 ft | 414 kts | 156° |
| 2026-04-22 18:29 | 55.13647 | 13.24232 | 22192 ft | 417 kts | 156° |
| 2026-04-22 18:29 | 55.10924 | 13.26021 | 22726 ft | 420 kts | 156° |
| 2026-04-22 18:29 | 55.08180 | 13.27823 | 23222 ft | 423 kts | 155° |
| 2026-04-22 18:29 | 55.05412 | 13.29641 | 23730 ft | 426 kts | 156° |
| 2026-04-22 18:30 | 55.02579 | 13.31233 | 24162 ft | 432 kts | 166° |
| 2026-04-22 18:30 | 54.96513 | 13.32009 | 25003 ft | 440 kts | 174° |
| 2026-04-22 18:30 | 54.93445 | 13.32256 | 25412 ft | 442 kts | 174° |
| 2026-04-22 18:31 | 54.90362 | 13.32490 | 25824 ft | 445 kts | 173° |
| 2026-04-22 18:31 | 54.87267 | 13.32719 | 26212 ft | 447 kts | 173° |
| 2026-04-22 18:31 | 54.84149 | 13.32952 | 26623 ft | 449 kts | 173° |
| 2026-04-22 18:31 | 54.81036 | 13.33194 | 27012 ft | 451 kts | 173° |
| 2026-04-22 18:32 | 54.78940 | 13.33361 | 27272 ft | 453 kts | 173° |
| 2026-04-22 18:32 | 54.74724 | 13.33698 | 27837 ft | 454 kts | 172° |
| 2026-04-22 18:32 | 54.71567 | 13.33948 | 28235 ft | 456 kts | 172° |
| 2026-04-22 18:32 | 54.68391 | 13.34200 | 28603 ft | 458 kts | 172° |
| 2026-04-22 18:33 | 54.65200 | 13.34453 | 28955 ft | 460 kts | 172° |
| 2026-04-22 18:33 | 54.61998 | 13.34709 | 29302 ft | 462 kts | 172° |
| 2026-04-22 18:33 | 54.58780 | 13.34969 | 29644 ft | 464 kts | 171° |
| 2026-04-22 18:33 | 54.55550 | 13.35231 | 29978 ft | 466 kts | 171° |
| 2026-04-22 18:34 | 54.52303 | 13.35490 | 30329 ft | 468 kts | 171° |
| 2026-04-22 18:34 | 54.49057 | 13.35744 | 30746 ft | 466 kts | 171° |
| 2026-04-22 18:34 | 54.45823 | 13.35992 | 31184 ft | 464 kts | 171° |
| 2026-04-22 18:34 | 54.42606 | 13.36236 | 31592 ft | 463 kts | 171° |
| 2026-04-22 18:35 | 54.39394 | 13.36478 | 31993 ft | 462 kts | 170° |
| 2026-04-22 18:35 | 54.36188 | 13.36723 | 32387 ft | 461 kts | 170° |
| 2026-04-22 18:35 | 54.32987 | 13.36968 | 32789 ft | 460 kts | 170° |
| 2026-04-22 18:35 | 54.29796 | 13.37213 | 33200 ft | 459 kts | 169° |
| 2026-04-22 18:36 | 54.26613 | 13.37462 | 33607 ft | 458 kts | 169° |
| 2026-04-22 18:36 | 54.23437 | 13.37711 | 34079 ft | 455 kts | 169° |
| 2026-04-22 18:36 | 54.20275 | 13.37960 | 34455 ft | 455 kts | 169° |
| 2026-04-22 18:36 | 54.18180 | 13.38127 | 34665 ft | 455 kts | 169° |
| 2026-04-22 18:37 | 54.15018 | 13.38378 | 34989 ft | 455 kts | 169° |
| 2026-04-22 18:37 | 54.11854 | 13.38625 | 35320 ft | 455 kts | 169° |
| 2026-04-22 18:37 | 54.08694 | 13.38868 | 35649 ft | 454 kts | 170° |
| 2026-04-22 18:37 | 54.04511 | 13.39187 | 36066 ft | 454 kts | 170° |
| 2026-04-22 18:38 | 54.01359 | 13.39429 | 36348 ft | 454 kts | 170° |
| 2026-04-22 18:38 | 53.98209 | 13.39670 | 36667 ft | 453 kts | 170° |
| 2026-04-22 18:38 | 53.96079 | 13.39835 | 36867 ft | 452 kts | 171° |
| 2026-04-22 18:39 | 53.89792 | 13.40326 | 37236 ft | 453 kts | 171° |
| 2026-04-22 18:39 | 53.86645 | 13.40567 | 37252 ft | 453 kts | 171° |
| 2026-04-22 18:39 | 53.80396 | 13.41029 | 37253 ft | 452 kts | 171° |
| 2026-04-22 18:40 | 53.74116 | 13.41510 | 37272 ft | 452 kts | 171° |
| 2026-04-22 18:40 | 53.67829 | 13.41991 | 37264 ft | 452 kts | 171° |
| 2026-04-22 18:41 | 53.61550 | 13.42458 | 37252 ft | 452 kts | 171° |
| 2026-04-22 18:41 | 53.55263 | 13.42932 | 37258 ft | 452 kts | 171° |
| 2026-04-22 18:42 | 53.48977 | 13.43401 | 37259 ft | 452 kts | 171° |
| 2026-04-22 18:42 | 53.42687 | 13.43871 | 37284 ft | 452 kts | 171° |
| 2026-04-22 18:43 | 53.36401 | 13.44343 | 37283 ft | 453 kts | 171° |
| 2026-04-22 18:43 | 53.30106 | 13.44807 | 37291 ft | 453 kts | 171° |
| 2026-04-22 18:44 | 53.23814 | 13.45272 | 37283 ft | 453 kts | 171° |
| 2026-04-22 18:44 | 53.17514 | 13.45732 | 37297 ft | 453 kts | 171° |
| 2026-04-22 18:45 | 53.11210 | 13.46186 | 37290 ft | 453 kts | 171° |
| 2026-04-22 18:45 | 53.04907 | 13.46655 | 37288 ft | 453 kts | 171° |
| 2026-04-22 18:46 | 52.98605 | 13.47129 | 37284 ft | 454 kts | 171° |
| 2026-04-22 18:46 | 52.92297 | 13.47589 | 37301 ft | 454 kts | 171° |
| 2026-04-22 18:47 | 52.85988 | 13.48040 | 37294 ft | 454 kts | 171° |
| 2026-04-22 18:47 | 52.79686 | 13.48492 | 37288 ft | 454 kts | 171° |
| 2026-04-22 18:48 | 52.73380 | 13.48941 | 37291 ft | 453 kts | 171° |
| 2026-04-22 18:48 | 52.67074 | 13.49403 | 37292 ft | 453 kts | 171° |
| 2026-04-22 18:49 | 52.60773 | 13.49856 | 37292 ft | 453 kts | 171° |
| 2026-04-22 18:49 | 52.54470 | 13.50304 | 37283 ft | 453 kts | 171° |
| 2026-04-22 18:50 | 52.48206 | 13.50751 | 37290 ft | 453 kts | 171° |
| 2026-04-22 18:50 | 52.41902 | 13.51210 | 37287 ft | 454 kts | 171° |
| 2026-04-22 18:51 | 52.35593 | 13.51667 | 37293 ft | 454 kts | 171° |
| 2026-04-22 18:51 | 52.29280 | 13.52116 | 37290 ft | 454 kts | 171° |
| 2026-04-22 18:52 | 52.22956 | 13.52558 | 37307 ft | 455 kts | 171° |
| 2026-04-22 18:52 | 52.16634 | 13.52995 | 37287 ft | 455 kts | 171° |
| 2026-04-22 18:53 | 52.10300 | 13.53431 | 37282 ft | 455 kts | 171° |
| 2026-04-22 18:53 | 52.03962 | 13.53875 | 37287 ft | 456 kts | 171° |
| 2026-04-22 18:54 | 51.97624 | 13.54320 | 37301 ft | 456 kts | 171° |
| 2026-04-22 18:54 | 51.91286 | 13.54764 | 37291 ft | 456 kts | 171° |
| 2026-04-22 18:55 | 51.84939 | 13.55201 | 37282 ft | 456 kts | 171° |
| 2026-04-22 18:55 | 51.78594 | 13.55645 | 37285 ft | 457 kts | 171° |
| 2026-04-22 18:56 | 51.72244 | 13.56088 | 37300 ft | 457 kts | 172° |
| 2026-04-22 18:56 | 51.65887 | 13.56527 | 37287 ft | 457 kts | 172° |
| 2026-04-22 18:57 | 51.59526 | 13.56971 | 37287 ft | 458 kts | 172° |
| 2026-04-22 18:57 | 51.53154 | 13.57399 | 37291 ft | 458 kts | 172° |
| 2026-04-22 18:58 | 51.46783 | 13.57829 | 37302 ft | 459 kts | 172° |
| 2026-04-22 18:58 | 51.40400 | 13.58261 | 37288 ft | 459 kts | 172° |
| 2026-04-22 18:59 | 51.34010 | 13.58702 | 37286 ft | 460 kts | 172° |
| 2026-04-22 18:59 | 51.27616 | 13.59145 | 37274 ft | 460 kts | 172° |
| 2026-04-22 19:00 | 51.21258 | 13.59568 | 37273 ft | 461 kts | 172° |
| 2026-04-22 19:00 | 51.14846 | 13.59999 | 37268 ft | 461 kts | 172° |
| 2026-04-22 19:01 | 51.08427 | 13.60426 | 37275 ft | 462 kts | 172° |
| 2026-04-22 19:01 | 51.01994 | 13.60854 | 37283 ft | 463 kts | 172° |
| 2026-04-22 19:02 | 50.95560 | 13.61280 | 37300 ft | 464 kts | 173° |
| 2026-04-22 19:02 | 50.89111 | 13.61717 | 37306 ft | 464 kts | 173° |
| 2026-04-22 19:03 | 50.82658 | 13.62161 | 37305 ft | 464 kts | 173° |
| 2026-04-22 19:03 | 50.76205 | 13.62584 | 37324 ft | 464 kts | 173° |
| 2026-04-22 19:04 | 50.69836 | 13.63714 | 37315 ft | 457 kts | 160° |
| 2026-04-22 19:04 | 50.63770 | 13.66570 | 37308 ft | 455 kts | 158° |
| 2026-04-22 19:05 | 50.57692 | 13.69438 | 37307 ft | 456 kts | 159° |
| 2026-04-22 19:05 | 50.51612 | 13.72285 | 37309 ft | 456 kts | 159° |
| 2026-04-22 19:06 | 50.45522 | 13.75133 | 37296 ft | 457 kts | 159° |
| 2026-04-22 19:07 | 50.36365 | 13.79399 | 37303 ft | 458 kts | 159° |
| 2026-04-22 19:07 | 50.30254 | 13.82249 | 37304 ft | 458 kts | 159° |
| 2026-04-22 19:08 | 50.24143 | 13.85087 | 37304 ft | 458 kts | 159° |
| 2026-04-22 19:08 | 50.18024 | 13.87920 | 37330 ft | 459 kts | 159° |
| 2026-04-22 19:09 | 50.11911 | 13.90750 | 37321 ft | 459 kts | 159° |
| 2026-04-22 19:09 | 50.06821 | 13.93099 | 37320 ft | 459 kts | 159° |
| 2026-04-22 19:10 | 49.99663 | 13.96394 | 37318 ft | 459 kts | 159° |
| 2026-04-22 19:10 | 49.93530 | 13.99198 | 37314 ft | 460 kts | 159° |
| 2026-04-22 19:11 | 49.87393 | 14.02002 | 37307 ft | 460 kts | 159° |
| 2026-04-22 19:11 | 49.81252 | 14.04795 | 37309 ft | 460 kts | 159° |
| 2026-04-22 19:12 | 49.75107 | 14.07594 | 37307 ft | 461 kts | 159° |
| 2026-04-22 19:12 | 49.68947 | 14.10394 | 37322 ft | 462 kts | 159° |
| 2026-04-22 19:13 | 49.62640 | 14.12406 | 37315 ft | 470 kts | 178° |
| 2026-04-22 19:13 | 49.56088 | 14.11536 | 37310 ft | 473 kts | 182° |
| 2026-04-22 19:14 | 49.49530 | 14.10508 | 37304 ft | 474 kts | 183° |
| 2026-04-22 19:14 | 49.42965 | 14.09475 | 37303 ft | 474 kts | 183° |
| 2026-04-22 19:15 | 49.37527 | 14.08628 | 37307 ft | 475 kts | 183° |
| 2026-04-22 19:15 | 49.29854 | 14.07459 | 37305 ft | 475 kts | 183° |
| 2026-04-22 19:16 | 49.23275 | 14.06461 | 37309 ft | 476 kts | 183° |
| 2026-04-22 19:16 | 49.16687 | 14.05462 | 37308 ft | 476 kts | 183° |
| 2026-04-22 19:17 | 49.10089 | 14.04459 | 37318 ft | 476 kts | 183° |
| 2026-04-22 19:17 | 49.03492 | 14.03459 | 37311 ft | 477 kts | 183° |
| 2026-04-22 19:18 | 48.96885 | 14.02462 | 37294 ft | 477 kts | 183° |
| 2026-04-22 19:18 | 48.90277 | 14.01473 | 37307 ft | 477 kts | 183° |
| 2026-04-22 19:19 | 48.83665 | 14.00482 | 37309 ft | 477 kts | 184° |
| 2026-04-22 19:19 | 48.77056 | 13.99495 | 37314 ft | 477 kts | 184° |
| 2026-04-22 19:20 | 48.70597 | 13.97805 | 37300 ft | 468 kts | 197° |
| 2026-04-22 19:20 | 48.64791 | 13.93466 | 37294 ft | 467 kts | 216° |
| 2026-04-22 19:21 | 48.59628 | 13.87507 | 36839 ft | 467 kts | 217° |
| 2026-04-22 19:21 | 48.57051 | 13.84532 | 36187 ft | 467 kts | 217° |
| 2026-04-22 19:21 | 48.55340 | 13.82562 | 35764 ft | 467 kts | 217° |
| 2026-04-22 19:21 | 48.52752 | 13.79590 | 35121 ft | 467 kts | 216° |
| 2026-04-22 19:22 | 48.50167 | 13.76624 | 34468 ft | 467 kts | 216° |
| 2026-04-22 19:22 | 48.47581 | 13.73659 | 33774 ft | 468 kts | 216° |
| 2026-04-22 19:22 | 48.44986 | 13.70682 | 32943 ft | 469 kts | 216° |
| 2026-04-22 19:22 | 48.42376 | 13.67716 | 32134 ft | 470 kts | 214° |
| 2026-04-22 19:23 | 48.39734 | 13.64818 | 31354 ft | 470 kts | 213° |
| 2026-04-22 19:23 | 48.37063 | 13.61975 | 30641 ft | 470 kts | 212° |
| 2026-04-22 19:23 | 48.34385 | 13.59173 | 30362 ft | 469 kts | 211° |
| 2026-04-22 19:23 | 48.31700 | 13.56374 | 30245 ft | 469 kts | 211° |
| 2026-04-22 19:24 | 48.29019 | 13.53572 | 30283 ft | 470 kts | 211° |
| 2026-04-22 19:24 | 48.23663 | 13.47918 | 30277 ft | 471 kts | 213° |
| 2026-04-22 19:25 | 48.18305 | 13.42227 | 30280 ft | 472 kts | 213° |
| 2026-04-22 19:25 | 48.12943 | 13.36561 | 30283 ft | 472 kts | 212° |
| 2026-04-22 19:26 | 48.07576 | 13.30913 | 30277 ft | 472 kts | 212° |
| 2026-04-22 19:26 | 48.02194 | 13.25269 | 29990 ft | 473 kts | 213° |
| 2026-04-22 19:26 | 47.99497 | 13.22448 | 29694 ft | 474 kts | 213° |
| 2026-04-22 19:27 | 47.96794 | 13.19624 | 29415 ft | 474 kts | 213° |
| 2026-04-22 19:27 | 47.94089 | 13.16802 | 29126 ft | 475 kts | 213° |
| 2026-04-22 19:27 | 47.91381 | 13.13985 | 28847 ft | 475 kts | 213° |
| 2026-04-22 19:27 | 47.88670 | 13.11167 | 28581 ft | 476 kts | 214° |
| 2026-04-22 19:28 | 47.85953 | 13.08344 | 28296 ft | 476 kts | 214° |
| 2026-04-22 19:28 | 47.83235 | 13.05518 | 28024 ft | 477 kts | 214° |
| 2026-04-22 19:28 | 47.80516 | 13.02692 | 27762 ft | 477 kts | 214° |
| 2026-04-22 19:28 | 47.77794 | 12.99866 | 27491 ft | 477 kts | 214° |
| 2026-04-22 19:29 | 47.75102 | 12.97049 | 26866 ft | 471 kts | 216° |
| 2026-04-22 19:29 | 47.72659 | 12.93857 | 26190 ft | 466 kts | 226° |
| 2026-04-22 19:29 | 47.70559 | 12.90235 | 25538 ft | 461 kts | 231° |
| 2026-04-22 19:29 | 47.68532 | 12.86580 | 24918 ft | 455 kts | 231° |
| 2026-04-22 19:30 | 47.67202 | 12.84191 | 24505 ft | 452 kts | 231° |
| 2026-04-22 19:30 | 47.64531 | 12.79406 | 23612 ft | 448 kts | 231° |
| 2026-04-22 19:30 | 47.62551 | 12.75867 | 22894 ft | 443 kts | 231° |
| 2026-04-22 19:30 | 47.60589 | 12.72371 | 22259 ft | 439 kts | 231° |
| 2026-04-22 19:31 | 47.58645 | 12.68912 | 21638 ft | 435 kts | 231° |
| 2026-04-22 19:31 | 47.56720 | 12.65487 | 21080 ft | 431 kts | 231° |
| 2026-04-22 19:31 | 47.54986 | 12.61913 | 20531 ft | 426 kts | 236° |
| 2026-04-22 19:31 | 47.53244 | 12.58387 | 19915 ft | 422 kts | 234° |
| 2026-04-22 19:32 | 47.51492 | 12.54925 | 19417 ft | 420 kts | 234° |
| 2026-04-22 19:32 | 47.49740 | 12.51492 | 18890 ft | 417 kts | 234° |
| 2026-04-22 19:32 | 47.48000 | 12.48080 | 18369 ft | 414 kts | 234° |
| 2026-04-22 19:32 | 47.46277 | 12.44695 | 17825 ft | 411 kts | 234° |
| 2026-04-22 19:33 | 47.44569 | 12.41333 | 17249 ft | 408 kts | 234° |
| 2026-04-22 19:33 | 47.42874 | 12.37995 | 16728 ft | 404 kts | 234° |
| 2026-04-22 19:33 | 47.41197 | 12.34691 | 16212 ft | 401 kts | 234° |
| 2026-04-22 19:33 | 47.39531 | 12.31406 | 15677 ft | 398 kts | 234° |
| 2026-04-22 19:34 | 47.37879 | 12.28152 | 15345 ft | 396 kts | 234° |
| 2026-04-22 19:34 | 47.36230 | 12.24894 | 15292 ft | 396 kts | 234° |
| 2026-04-22 19:34 | 47.34579 | 12.21644 | 15306 ft | 397 kts | 234° |
| 2026-04-22 19:34 | 47.32918 | 12.18391 | 15301 ft | 396 kts | 234° |
| 2026-04-22 19:35 | 47.31256 | 12.15143 | 15299 ft | 397 kts | 234° |
| 2026-04-22 19:35 | 47.29595 | 12.11889 | 15302 ft | 397 kts | 234° |
| 2026-04-22 19:35 | 47.27932 | 12.08640 | 15301 ft | 397 kts | 234° |
| 2026-04-22 19:35 | 47.26269 | 12.05393 | 15301 ft | 397 kts | 234° |
| 2026-04-22 19:36 | 47.24604 | 12.02139 | 15301 ft | 398 kts | 234° |
| 2026-04-22 19:36 | 47.22943 | 11.98895 | 15294 ft | 397 kts | 235° |
| 2026-04-22 19:36 | 47.21601 | 11.95446 | 15278 ft | 377 kts | 251° |
| 2026-04-22 19:36 | 47.20782 | 11.91995 | 15289 ft | 349 kts | 254° |
| 2026-04-22 19:37 | 47.20033 | 11.88728 | 15286 ft | 326 kts | 254° |
| 2026-04-22 19:37 | 47.19314 | 11.85615 | 15292 ft | 319 kts | 254° |
| 2026-04-22 19:37 | 47.18602 | 11.82538 | 15288 ft | 317 kts | 255° |
| 2026-04-22 19:37 | 47.17889 | 11.79478 | 15281 ft | 316 kts | 254° |
| 2026-04-22 19:38 | 47.17175 | 11.76423 | 15272 ft | 316 kts | 255° |
| 2026-04-22 19:38 | 47.16455 | 11.73369 | 15278 ft | 316 kts | 254° |
| 2026-04-22 19:38 | 47.15741 | 11.70317 | 15275 ft | 316 kts | 255° |
| 2026-04-22 19:38 | 47.15032 | 11.67254 | 15276 ft | 317 kts | 255° |
| 2026-04-22 19:39 | 47.14320 | 11.64192 | 15279 ft | 317 kts | 254° |
| 2026-04-22 19:39 | 47.13607 | 11.61140 | 15274 ft | 316 kts | 254° |
| 2026-04-22 19:39 | 47.12898 | 11.58088 | 15259 ft | 314 kts | 255° |
| 2026-04-22 19:39 | 47.12196 | 11.55057 | 15272 ft | 314 kts | 254° |
| 2026-04-22 19:40 | 47.11500 | 11.52019 | 15269 ft | 314 kts | 254° |
| 2026-04-22 19:40 | 47.10806 | 11.48979 | 15261 ft | 314 kts | 254° |
| 2026-04-22 19:40 | 47.10107 | 11.45945 | 15263 ft | 314 kts | 254° |
| 2026-04-22 19:40 | 47.09409 | 11.42910 | 15254 ft | 313 kts | 254° |
| 2026-04-22 19:41 | 47.08715 | 11.39878 | 15255 ft | 314 kts | 255° |
| 2026-04-22 19:41 | 47.08013 | 11.36842 | 15254 ft | 314 kts | 254° |
| 2026-04-22 19:41 | 47.07335 | 11.33800 | 15253 ft | 313 kts | 258° |
| 2026-04-22 19:41 | 47.07227 | 11.30678 | 15245 ft | 304 kts | 285° |
| 2026-04-22 19:42 | 47.07811 | 11.27731 | 15244 ft | 300 kts | 294° |
| 2026-04-22 19:42 | 47.08508 | 11.24848 | 15257 ft | 300 kts | 294° |
| 2026-04-22 19:42 | 47.09218 | 11.21967 | 15250 ft | 300 kts | 294° |
| 2026-04-22 19:42 | 47.09932 | 11.19086 | 15249 ft | 300 kts | 294° |
| 2026-04-22 19:43 | 47.11361 | 11.13389 | 15059 ft | 291 kts | 294° |
| 2026-04-22 19:43 | 47.12054 | 11.10637 | 14934 ft | 284 kts | 294° |
| 2026-04-22 19:43 | 47.12728 | 11.07951 | 14804 ft | 278 kts | 294° |
| 2026-04-22 19:44 | 47.13390 | 11.05305 | 14611 ft | 274 kts | 294° |
| 2026-04-22 19:44 | 47.14048 | 11.02679 | 14381 ft | 273 kts | 294° |
| 2026-04-22 19:44 | 47.14696 | 11.00066 | 14122 ft | 272 kts | 294° |
| 2026-04-22 19:44 | 47.15337 | 10.97455 | 13762 ft | 271 kts | 294° |
| 2026-04-22 19:45 | 47.15978 | 10.94858 | 13426 ft | 270 kts | 294° |
| 2026-04-22 19:45 | 47.16631 | 10.92277 | 13096 ft | 269 kts | 294° |
| 2026-04-22 19:45 | 47.17284 | 10.89717 | 12985 ft | 267 kts | 294° |
| 2026-04-22 19:45 | 47.17672 | 10.87062 | 12986 ft | 263 kts | 277° |
| 2026-04-22 19:46 | 47.17743 | 10.84432 | 12996 ft | 254 kts | 275° |
| 2026-04-22 19:46 | 47.17776 | 10.81856 | 12993 ft | 251 kts | 274° |
| 2026-04-22 19:46 | 47.17806 | 10.79301 | 12995 ft | 250 kts | 274° |
| 2026-04-22 19:46 | 47.17837 | 10.76739 | 12983 ft | 251 kts | 274° |
| 2026-04-22 19:47 | 47.17879 | 10.74205 | 12990 ft | 251 kts | 274° |
| 2026-04-22 19:47 | 47.17925 | 10.71605 | 12992 ft | 251 kts | 274° |
| 2026-04-22 19:47 | 47.17955 | 10.69906 | 12998 ft | 251 kts | 274° |
| 2026-04-22 19:47 | 47.18016 | 10.66508 | 12992 ft | 251 kts | 275° |
| 2026-04-22 19:48 | 47.18345 | 10.64024 | 12998 ft | 247 kts | 291° |
| 2026-04-22 19:48 | 47.18924 | 10.61655 | 12994 ft | 246 kts | 294° |
| 2026-04-22 19:48 | 47.19530 | 10.59302 | 12989 ft | 246 kts | 294° |
| 2026-04-22 19:48 | 47.20138 | 10.56951 | 12987 ft | 246 kts | 294° |
| 2026-04-22 19:49 | 47.20748 | 10.54595 | 12992 ft | 247 kts | 294° |
| 2026-04-22 19:49 | 47.21408 | 10.52278 | 12976 ft | 244 kts | 304° |
| 2026-04-22 19:49 | 47.22530 | 10.50486 | 12981 ft | 237 kts | 330° |
| 2026-04-22 19:49 | 47.24024 | 10.49595 | 13000 ft | 231 kts | 354° |
| 2026-04-22 19:50 | 47.25604 | 10.49706 | 12998 ft | 227 kts | 18° |
| 2026-04-22 19:50 | 47.26991 | 10.50740 | 12861 ft | 223 kts | 40° |
| 2026-04-22 19:50 | 47.27956 | 10.52512 | 12546 ft | 223 kts | 64° |
| 2026-04-22 19:50 | 47.28341 | 10.54717 | 12150 ft | 225 kts | 84° |
| 2026-04-22 19:51 | 47.28447 | 10.57029 | 11879 ft | 225 kts | 84° |
| 2026-04-22 19:51 | 47.28559 | 10.59278 | 11739 ft | 215 kts | 83° |
| 2026-04-22 19:51 | 47.28669 | 10.61429 | 11621 ft | 205 kts | 83° |
| 2026-04-22 19:51 | 47.28776 | 10.63502 | 11555 ft | 202 kts | 84° |
| 2026-04-22 19:52 | 47.28883 | 10.65556 | 11497 ft | 201 kts | 83° |
| 2026-04-22 19:52 | 47.28989 | 10.67611 | 11480 ft | 200 kts | 83° |
| 2026-04-22 19:52 | 47.29083 | 10.69643 | 11173 ft | 199 kts | 84° |
| 2026-04-22 19:52 | 47.29164 | 10.71682 | 10838 ft | 200 kts | 85° |
| 2026-04-22 19:53 | 47.29243 | 10.73716 | 10553 ft | 198 kts | 86° |
| 2026-04-22 19:53 | 47.29321 | 10.75747 | 10235 ft | 198 kts | 85° |
| 2026-04-22 19:53 | 47.29373 | 10.77087 | 10035 ft | 197 kts | 85° |
| 2026-04-22 19:53 | 47.29478 | 10.79775 | 9599 ft | 196 kts | 85° |
| 2026-04-22 19:54 | 47.29556 | 10.81777 | 9271 ft | 196 kts | 85° |
| 2026-04-22 19:54 | 47.29635 | 10.83778 | 8972 ft | 195 kts | 85° |
| 2026-04-22 19:54 | 47.29714 | 10.85759 | 8671 ft | 193 kts | 85° |
| 2026-04-22 19:54 | 47.29790 | 10.87727 | 8385 ft | 192 kts | 85° |
| 2026-04-22 19:55 | 47.29863 | 10.89682 | 8126 ft | 191 kts | 86° |
| 2026-04-22 19:55 | 47.29937 | 10.91639 | 7883 ft | 190 kts | 86° |
| 2026-04-22 19:55 | 47.30009 | 10.93511 | 7680 ft | 176 kts | 86° |
| 2026-04-22 19:55 | 47.30075 | 10.95264 | 7518 ft | 168 kts | 85° |
| 2026-04-22 19:56 | 47.30140 | 10.96976 | 7385 ft | 168 kts | 86° |
| 2026-04-22 19:56 | 47.30203 | 10.98687 | 7275 ft | 167 kts | 86° |
| 2026-04-22 19:56 | 47.30265 | 11.00406 | 7174 ft | 168 kts | 86° |
| 2026-04-22 19:56 | 47.30329 | 11.02117 | 7091 ft | 168 kts | 86° |
| 2026-04-22 19:57 | 47.30393 | 11.03823 | 7002 ft | 167 kts | 86° |
| 2026-04-22 19:57 | 47.30454 | 11.05438 | 6972 ft | 144 kts | 86° |
| 2026-04-22 19:57 | 47.30504 | 11.06834 | 6720 ft | 136 kts | 86° |
| 2026-04-22 19:57 | 47.30429 | 11.08226 | 6344 ft | 138 kts | 98° |
| 2026-04-22 19:58 | 47.30166 | 11.09730 | 6303 ft | 161 kts | 107° |
| 2026-04-22 19:58 | 47.29759 | 11.11311 | 6312 ft | 166 kts | 111° |
| 2026-04-22 19:58 | 47.29280 | 11.12861 | 6262 ft | 166 kts | 114° |
| 2026-04-22 19:58 | 47.28773 | 11.14401 | 6202 ft | 168 kts | 115° |
| 2026-04-22 19:59 | 47.28251 | 11.15933 | 6111 ft | 168 kts | 115° |
| 2026-04-22 20:00 | 47.24872 | 11.24775 | 4942 ft | 158 kts | 101° |
| 2026-04-22 20:00 | 47.24953 | 11.26410 | 4192 ft | 165 kts | 69° |
| 2026-04-22 20:01 | 47.25299 | 11.27996 | 3710 ft | 161 kts | 75° |
| 2026-04-22 20:01 | 47.25523 | 11.29622 | 3064 ft | 165 kts | 80° |
| 2026-04-22 20:01 | 47.25682 | 11.31298 | 2450 ft | 164 kts | 79° |
| 2026-04-22 20:01 | 47.25835 | 11.32942 | 2376 ft | 172 kts | 81° |
| 2026-04-22 20:02 | 47.26008 | 11.34807 | 2887 ft | 191 kts | 83° |
| 2026-04-22 20:02 | 47.26164 | 11.36782 | 3611 ft | 201 kts | 83° |
| 2026-04-22 20:02 | 47.26346 | 11.38852 | 4275 ft | 205 kts | 81° |
| 2026-04-22 20:02 | 47.26553 | 11.40926 | 5053 ft | 206 kts | 81° |
| 2026-04-22 20:03 | 47.26764 | 11.43034 | 5833 ft | 211 kts | 81° |
| 2026-04-22 20:03 | 47.26980 | 11.45193 | 6501 ft | 214 kts | 80° |
| 2026-04-22 20:03 | 47.27429 | 11.47243 | 7006 ft | 213 kts | 66° |
| 2026-04-22 20:03 | 47.28048 | 11.49247 | 7509 ft | 212 kts | 64° |
| 2026-04-22 20:04 | 47.28677 | 11.51227 | 8019 ft | 215 kts | 64° |
| 2026-04-22 20:04 | 47.29311 | 11.53226 | 8536 ft | 216 kts | 64° |
| 2026-04-22 20:04 | 47.29733 | 11.54563 | 8998 ft | 220 kts | 64° |
| 2026-04-22 20:04 | 47.30579 | 11.57262 | 9651 ft | 219 kts | 64° |
| 2026-04-22 20:05 | 47.31306 | 11.59238 | 10169 ft | 220 kts | 54° |
| 2026-04-22 20:05 | 47.32490 | 11.60632 | 10645 ft | 226 kts | 21° |
| 2026-04-22 20:05 | 47.34105 | 11.60858 | 11130 ft | 244 kts | 351° |
| 2026-04-22 20:05 | 47.35653 | 11.59777 | 11605 ft | 253 kts | 321° |
| 2026-04-22 20:06 | 47.36721 | 11.57667 | 12122 ft | 261 kts | 302° |
| 2026-04-22 20:06 | 47.37289 | 11.56058 | 12472 ft | 263 kts | 300° |
| 2026-04-22 20:06 | 47.38084 | 11.53658 | 12990 ft | 267 kts | 300° |
| 2026-04-22 20:06 | 47.38909 | 11.51135 | 13235 ft | 270 kts | 300° |
| 2026-04-22 20:07 | 47.39708 | 11.48665 | 13272 ft | 270 kts | 300° |
| 2026-04-22 20:07 | 47.40507 | 11.46162 | 13275 ft | 269 kts | 299° |
| 2026-04-22 20:07 | 47.41303 | 11.43665 | 13277 ft | 268 kts | 299° |
| 2026-04-22 20:07 | 47.42097 | 11.41168 | 13277 ft | 269 kts | 299° |
| 2026-04-22 20:08 | 47.42888 | 11.38666 | 13280 ft | 269 kts | 299° |
| 2026-04-22 20:08 | 47.43678 | 11.36162 | 13276 ft | 269 kts | 299° |
| 2026-04-22 20:08 | 47.44463 | 11.33648 | 13277 ft | 270 kts | 297° |
| 2026-04-22 20:08 | 47.44821 | 11.30905 | 13279 ft | 278 kts | 273° |
| 2026-04-22 20:09 | 47.44747 | 11.28043 | 13272 ft | 279 kts | 270° |
| 2026-04-22 20:09 | 47.44629 | 11.25183 | 13277 ft | 279 kts | 269° |
| 2026-04-22 20:09 | 47.44506 | 11.22315 | 13284 ft | 280 kts | 269° |
| 2026-04-22 20:09 | 47.44376 | 11.19449 | 13286 ft | 280 kts | 269° |
| 2026-04-22 20:10 | 47.44163 | 11.16592 | 13290 ft | 281 kts | 262° |
| 2026-04-22 20:10 | 47.43748 | 11.13765 | 13289 ft | 282 kts | 259° |
| 2026-04-22 20:10 | 47.43307 | 11.10950 | 13286 ft | 281 kts | 259° |
| 2026-04-22 20:10 | 47.42859 | 11.08133 | 13282 ft | 281 kts | 259° |
| 2026-04-22 20:11 | 47.42412 | 11.05323 | 13280 ft | 282 kts | 259° |
| 2026-04-22 20:11 | 47.41969 | 11.02511 | 13280 ft | 281 kts | 259° |
| 2026-04-22 20:11 | 47.41526 | 10.99692 | 13283 ft | 282 kts | 259° |
| 2026-04-22 20:11 | 47.41079 | 10.96872 | 13286 ft | 282 kts | 259° |
| 2026-04-22 20:12 | 47.40629 | 10.94057 | 13285 ft | 282 kts | 259° |
| 2026-04-22 20:12 | 47.40179 | 10.91250 | 13129 ft | 280 kts | 259° |
| 2026-04-22 20:12 | 47.39732 | 10.88457 | 12847 ft | 279 kts | 259° |
| 2026-04-22 20:12 | 47.39292 | 10.85676 | 12588 ft | 277 kts | 258° |
| 2026-04-22 20:13 | 47.38868 | 10.82911 | 12330 ft | 276 kts | 259° |
| 2026-04-22 20:13 | 47.38454 | 10.80155 | 12097 ft | 274 kts | 259° |
| 2026-04-22 20:13 | 47.38049 | 10.77411 | 11822 ft | 273 kts | 259° |
| 2026-04-22 20:13 | 47.37642 | 10.74681 | 11541 ft | 272 kts | 259° |
| 2026-04-22 20:14 | 47.37242 | 10.71961 | 11263 ft | 270 kts | 259° |
| 2026-04-22 20:14 | 47.36820 | 10.69298 | 11126 ft | 263 kts | 252° |
| 2026-04-22 20:14 | 47.35931 | 10.67010 | 11001 ft | 254 kts | 227° |
| 2026-04-22 20:14 | 47.34561 | 10.65490 | 10868 ft | 242 kts | 202° |
| 2026-04-22 20:15 | 47.32979 | 10.64897 | 10757 ft | 230 kts | 179° |
| 2026-04-22 20:15 | 47.31449 | 10.65183 | 10652 ft | 217 kts | 157° |
| 2026-04-22 20:15 | 47.30140 | 10.66187 | 10608 ft | 210 kts | 137° |
| 2026-04-22 20:15 | 47.29165 | 10.67732 | 10636 ft | 203 kts | 119° |
| 2026-04-22 20:16 | 47.28592 | 10.69620 | 10614 ft | 201 kts | 102° |
| 2026-04-22 20:16 | 47.28465 | 10.71649 | 10602 ft | 198 kts | 84° |
| 2026-04-22 20:16 | 47.28700 | 10.73641 | 10598 ft | 198 kts | 77° |
| 2026-04-22 20:16 | 47.28959 | 10.75640 | 10602 ft | 199 kts | 77° |
| 2026-04-22 20:17 | 47.29214 | 10.77643 | 10609 ft | 199 kts | 78° |
| 2026-04-22 20:17 | 47.29458 | 10.79643 | 10612 ft | 198 kts | 80° |
| 2026-04-22 20:17 | 47.29566 | 10.81682 | 10356 ft | 200 kts | 84° |
| 2026-04-22 20:17 | 47.29642 | 10.83726 | 10031 ft | 200 kts | 84° |
| 2026-04-22 20:18 | 47.29719 | 10.85772 | 9680 ft | 199 kts | 84° |
| 2026-04-22 20:18 | 47.29795 | 10.87808 | 9335 ft | 199 kts | 84° |
| 2026-04-22 20:18 | 47.29873 | 10.89853 | 8987 ft | 200 kts | 84° |
| 2026-04-22 20:18 | 47.29952 | 10.91894 | 8641 ft | 199 kts | 85° |
| 2026-04-22 20:19 | 47.30030 | 10.93933 | 8307 ft | 199 kts | 85° |
| 2026-04-22 20:19 | 47.30106 | 10.95963 | 7975 ft | 198 kts | 84° |
| 2026-04-22 20:19 | 47.30182 | 10.97978 | 7648 ft | 197 kts | 85° |
| 2026-04-22 20:19 | 47.30255 | 10.99985 | 7328 ft | 196 kts | 86° |
| 2026-04-22 20:20 | 47.30327 | 11.01986 | 7007 ft | 195 kts | 86° |
| 2026-04-22 20:20 | 47.30401 | 11.03978 | 6693 ft | 195 kts | 86° |
| 2026-04-22 20:20 | 47.30473 | 11.05966 | 6367 ft | 193 kts | 86° |
| 2026-04-22 20:20 | 47.30523 | 11.07945 | 6015 ft | 194 kts | 91° |
| 2026-04-22 20:21 | 47.30280 | 11.09863 | 5803 ft | 191 kts | 107° |
| 2026-04-22 20:21 | 47.29791 | 11.11681 | 5432 ft | 192 kts | 112° |
| 2026-04-22 20:21 | 47.29228 | 11.13465 | 5105 ft | 192 kts | 113° |
| 2026-04-22 20:21 | 47.28660 | 11.15241 | 4785 ft | 192 kts | 112° |
| 2026-04-22 20:22 | 47.28096 | 11.16979 | 4507 ft | 182 kts | 112° |
| 2026-04-22 20:22 | 47.27558 | 11.18587 | 4277 ft | 165 kts | 113° |
| 2026-04-22 20:22 | 47.27110 | 11.20041 | 4015 ft | 151 kts | 108° |
| 2026-04-22 20:22 | 47.26798 | 11.21485 | 3671 ft | 146 kts | 105° |
| 2026-04-22 20:23 | 47.26490 | 11.22871 | 3379 ft | 138 kts | 107° |
| 2026-04-22 20:23 | 47.26191 | 11.24176 | 3135 ft | 132 kts | 106° |
| 2026-04-22 20:23 | 47.25902 | 11.25449 | 2970 ft | 130 kts | 107° |
| 2026-04-22 20:23 | 47.25608 | 11.26707 | 2795 ft | 129 kts | 102° |
| 2026-04-22 20:24 | 47.25457 | 11.28009 | 2647 ft | 129 kts | 92° |
| 2026-04-22 20:24 | 47.25483 | 11.29330 | 2475 ft | 130 kts | 82° |
| 2026-04-22 20:24 | 47.25618 | 11.30637 | 2311 ft | 129 kts | 80° |
| 2026-04-22 20:24 | 47.25752 | 11.31937 | 2132 ft | 129 kts | 79° |
| 2026-04-22 20:25 | 47.25897 | 11.33229 | 1921 ft | 124 kts | 79° |
| 2026-04-22 20:25 | 47.26009 | 11.34291 | 1892 ft | 82 kts | 82° |
| 2026-04-22 20:25 | 47.26071 | 11.34868 | 1895 ft | 32 kts | 81° |
| 2026-04-22 20:25 | 47.26093 | 11.35075 | 1904 ft | 28 kts | 81° |
| 2026-04-22 20:26 | 47.26101 | 11.35237 | 1904 ft | 8 kts | 123° |
| 2026-04-22 20:26 | 47.26039 | 11.35263 | 1902 ft | 13 kts | 171° |
| 2026-04-22 20:26 | 47.25949 | 11.35284 | 1895 ft | 12 kts | 171° |
| 2026-04-22 20:26 | 47.25904 | 11.35267 | 1898 ft | 6 kts | 232° |
| 2026-04-22 20:27 | 47.25895 | 11.35200 | 1904 ft | 7 kts | 263° |
| 2026-04-22 20:27 | 47.25887 | 11.35121 | 1914 ft | 8 kts | 261° |
| 2026-04-22 20:27 | 47.25868 | 11.35105 | 1899 ft | 4 kts | 188° |
| 2026-04-22 20:27 | 47.25840 | 11.35106 | 1898 ft | 4 kts | 171° |
| 2026-04-22 20:28 | 47.25830 | 11.35109 | 1896 ft | 0 kts | 169° |